sensor_id;sensor_type;location;lat;lon;timestamp;temperature;humidity
33837;DHT22;20140;49.356;8.812;2024-01-11T00:01:08;-3.80;99.90
33837;DHT22;20140;49.356;8.812;2024-01-11T00:03:33;-3.80;99.90
33837;DHT22;20140;49.356;8.812;2024-01-11T00:06:00;-3.80;99.90
33837;DHT22;20140;49.356;8.812;2024-01-11T00:08:25;-3.70;99.90
33837;DHT22;20140;49.356;8.812;2024-01-11T00:10:54;-3.70;99.90
33837;DHT22;20140;49.356;8.812;2024-01-11T00:13:19;-3.70;99.90
33837;DHT22;20140;49.356;8.812;2024-01-11T00:15:44;-3.70;99.90
33837;DHT22;20140;49.356;8.812;2024-01-11T00:18:10;-3.70;99.90
33837;DHT22;20140;49.356;8.812;2024-01-11T00:20:37;-3.70;99.90
33837;DHT22;20140;49.356;8.812;2024-01-11T00:23:03;-3.70;99.90
33837;DHT22;20140;49.356;8.812;2024-01-11T00:25:28;-3.70;99.90
33837;DHT22;20140;49.356;8.812;2024-01-11T00:27:54;-3.70;99.90
33837;DHT22;20140;49.356;8.812;2024-01-11T00:30:20;-3.70;99.90
33837;DHT22;20140;49.356;8.812;2024-01-11T00:32:48;-3.70;99.90
33837;DHT22;20140;49.356;8.812;2024-01-11T00:35:14;-3.60;99.90
33837;DHT22;20140;49.356;8.812;2024-01-11T00:37:39;-3.60;99.90
33837;DHT22;20140;49.356;8.812;2024-01-11T00:40:05;-3.60;99.90
33837;DHT22;20140;49.356;8.812;2024-01-11T00:42:31;-3.70;99.90
33837;DHT22;20140;49.356;8.812;2024-01-11T00:44:56;-3.70;99.90
33837;DHT22;20140;49.356;8.812;2024-01-11T00:47:23;-3.70;99.90
33837;DHT22;20140;49.356;8.812;2024-01-11T00:49:50;-3.70;99.90
33837;DHT22;20140;49.356;8.812;2024-01-11T00:52:15;-3.70;99.90
33837;DHT22;20140;49.356;8.812;2024-01-11T00:54:41;-3.70;99.90
33837;DHT22;20140;49.356;8.812;2024-01-11T00:57:06;-3.70;99.90
33837;DHT22;20140;49.356;8.812;2024-01-11T00:59:33;-3.70;99.90
33837;DHT22;20140;49.356;8.812;2024-01-11T01:01:59;-3.70;99.90
33837;DHT22;20140;49.356;8.812;2024-01-11T01:04:24;-3.70;99.90
33837;DHT22;20140;49.356;8.812;2024-01-11T01:06:50;-3.70;99.90
33837;DHT22;20140;49.356;8.812;2024-01-11T01:09:15;-3.70;99.90
33837;DHT22;20140;49.356;8.812;2024-01-11T01:11:41;-3.70;99.90
33837;DHT22;20140;49.356;8.812;2024-01-11T01:14:06;-3.70;99.90
33837;DHT22;20140;49.356;8.812;2024-01-11T01:16:32;-3.70;99.90
33837;DHT22;20140;49.356;8.812;2024-01-11T01:18:57;-3.70;99.90
33837;DHT22;20140;49.356;8.812;2024-01-11T01:21:23;-3.70;99.90
33837;DHT22;20140;49.356;8.812;2024-01-11T01:23:49;-3.70;99.90
33837;DHT22;20140;49.356;8.812;2024-01-11T01:26:15;-3.60;99.90
33837;DHT22;20140;49.356;8.812;2024-01-11T01:28:40;-3.60;99.90
33837;DHT22;20140;49.356;8.812;2024-01-11T01:31:07;-3.60;99.90
33837;DHT22;20140;49.356;8.812;2024-01-11T01:33:33;-3.60;99.90
33837;DHT22;20140;49.356;8.812;2024-01-11T01:35:58;-3.60;99.90
33837;DHT22;20140;49.356;8.812;2024-01-11T01:38:24;-3.70;99.90
33837;DHT22;20140;49.356;8.812;2024-01-11T01:40:49;-3.70;99.90
33837;DHT22;20140;49.356;8.812;2024-01-11T01:43:15;-3.70;99.90
33837;DHT22;20140;49.356;8.812;2024-01-11T01:45:40;-3.70;99.90
33837;DHT22;20140;49.356;8.812;2024-01-11T01:48:06;-3.70;99.90
33837;DHT22;20140;49.356;8.812;2024-01-11T01:50:32;-3.60;99.90
33837;DHT22;20140;49.356;8.812;2024-01-11T01:52:57;-3.60;99.90
33837;DHT22;20140;49.356;8.812;2024-01-11T01:55:23;-3.60;99.90
33837;DHT22;20140;49.356;8.812;2024-01-11T01:57:50;-3.60;99.90
33837;DHT22;20140;49.356;8.812;2024-01-11T02:00:16;-3.60;99.90
33837;DHT22;20140;49.356;8.812;2024-01-11T02:02:46;-3.60;99.90
33837;DHT22;20140;49.356;8.812;2024-01-11T02:05:15;-3.60;99.90
33837;DHT22;20140;49.356;8.812;2024-01-11T02:07:42;-3.60;99.90
33837;DHT22;20140;49.356;8.812;2024-01-11T02:10:10;-3.70;99.90
33837;DHT22;20140;49.356;8.812;2024-01-11T02:12:36;-3.70;99.90
33837;DHT22;20140;49.356;8.812;2024-01-11T02:15:03;-3.60;99.90
33837;DHT22;20140;49.356;8.812;2024-01-11T02:17:29;-3.60;99.90
33837;DHT22;20140;49.356;8.812;2024-01-11T02:19:54;-3.60;99.90
33837;DHT22;20140;49.356;8.812;2024-01-11T02:22:34;-3.60;99.90
33837;DHT22;20140;49.356;8.812;2024-01-11T02:25:00;-3.60;99.90
33837;DHT22;20140;49.356;8.812;2024-01-11T02:27:25;-3.60;99.90
33837;DHT22;20140;49.356;8.812;2024-01-11T02:29:51;-3.60;99.90
33837;DHT22;20140;49.356;8.812;2024-01-11T02:32:17;-3.60;99.90
33837;DHT22;20140;49.356;8.812;2024-01-11T02:34:43;-3.60;99.90
33837;DHT22;20140;49.356;8.812;2024-01-11T02:37:09;-3.70;99.90
33837;DHT22;20140;49.356;8.812;2024-01-11T02:39:37;-3.70;99.90
33837;DHT22;20140;49.356;8.812;2024-01-11T02:42:04;-3.80;99.90
33837;DHT22;20140;49.356;8.812;2024-01-11T02:44:29;-3.80;99.90
33837;DHT22;20140;49.356;8.812;2024-01-11T02:46:55;-3.80;99.90
33837;DHT22;20140;49.356;8.812;2024-01-11T02:49:20;-3.90;99.90
33837;DHT22;20140;49.356;8.812;2024-01-11T02:51:45;-3.90;99.90
33837;DHT22;20140;49.356;8.812;2024-01-11T02:54:11;-3.90;99.90
33837;DHT22;20140;49.356;8.812;2024-01-11T02:56:37;-3.90;99.90
33837;DHT22;20140;49.356;8.812;2024-01-11T02:59:02;-3.90;99.90
33837;DHT22;20140;49.356;8.812;2024-01-11T03:01:30;-3.90;99.90
33837;DHT22;20140;49.356;8.812;2024-01-11T03:03:55;-3.90;99.90
33837;DHT22;20140;49.356;8.812;2024-01-11T03:06:21;-3.90;99.90
33837;DHT22;20140;49.356;8.812;2024-01-11T03:08:48;-4.00;99.90
33837;DHT22;20140;49.356;8.812;2024-01-11T03:11:14;-4.00;99.90
33837;DHT22;20140;49.356;8.812;2024-01-11T03:13:39;-3.90;99.90
33837;DHT22;20140;49.356;8.812;2024-01-11T03:16:05;-3.90;99.90
33837;DHT22;20140;49.356;8.812;2024-01-11T03:18:32;-3.90;99.90
33837;DHT22;20140;49.356;8.812;2024-01-11T03:20:58;-3.90;99.90
33837;DHT22;20140;49.356;8.812;2024-01-11T03:23:25;-3.90;99.90
33837;DHT22;20140;49.356;8.812;2024-01-11T03:25:51;-3.90;99.90
33837;DHT22;20140;49.356;8.812;2024-01-11T03:28:17;-3.90;99.90
33837;DHT22;20140;49.356;8.812;2024-01-11T03:30:43;-4.00;99.90
33837;DHT22;20140;49.356;8.812;2024-01-11T03:33:08;-3.90;99.90
33837;DHT22;20140;49.356;8.812;2024-01-11T03:35:34;-3.90;99.90
33837;DHT22;20140;49.356;8.812;2024-01-11T03:37:59;-3.90;99.90
33837;DHT22;20140;49.356;8.812;2024-01-11T03:40:28;-3.90;99.90
33837;DHT22;20140;49.356;8.812;2024-01-11T03:42:53;-3.90;99.90
33837;DHT22;20140;49.356;8.812;2024-01-11T03:45:19;-3.90;99.90
33837;DHT22;20140;49.356;8.812;2024-01-11T03:47:46;-3.90;99.90
33837;DHT22;20140;49.356;8.812;2024-01-11T03:50:13;-3.90;99.90
33837;DHT22;20140;49.356;8.812;2024-01-11T03:52:39;-3.90;99.90
33837;DHT22;20140;49.356;8.812;2024-01-11T03:55:06;-4.00;99.90
33837;DHT22;20140;49.356;8.812;2024-01-11T03:57:34;-4.00;99.90
33837;DHT22;20140;49.356;8.812;2024-01-11T04:00:00;-4.00;99.90
33837;DHT22;20140;49.356;8.812;2024-01-11T04:02:27;-4.00;99.90
33837;DHT22;20140;49.356;8.812;2024-01-11T04:04:52;-4.00;99.90
33837;DHT22;20140;49.356;8.812;2024-01-11T04:07:19;-4.00;99.90
33837;DHT22;20140;49.356;8.812;2024-01-11T04:09:46;-4.10;99.90
33837;DHT22;20140;49.356;8.812;2024-01-11T04:12:13;-4.10;99.90
33837;DHT22;20140;49.356;8.812;2024-01-11T04:14:39;-4.10;99.90
33837;DHT22;20140;49.356;8.812;2024-01-11T04:17:07;-4.10;99.90
33837;DHT22;20140;49.356;8.812;2024-01-11T04:19:34;-4.10;99.90
33837;DHT22;20140;49.356;8.812;2024-01-11T04:22:00;-4.10;99.90
33837;DHT22;20140;49.356;8.812;2024-01-11T04:24:25;-4.10;99.90
33837;DHT22;20140;49.356;8.812;2024-01-11T04:26:51;-4.10;99.90
33837;DHT22;20140;49.356;8.812;2024-01-11T04:29:18;-4.10;99.90
33837;DHT22;20140;49.356;8.812;2024-01-11T04:31:44;-4.10;99.90
33837;DHT22;20140;49.356;8.812;2024-01-11T04:34:10;-4.10;99.90
33837;DHT22;20140;49.356;8.812;2024-01-11T04:36:39;-4.10;99.90
33837;DHT22;20140;49.356;8.812;2024-01-11T04:39:05;-4.10;99.90
33837;DHT22;20140;49.356;8.812;2024-01-11T04:41:31;-4.10;99.90
33837;DHT22;20140;49.356;8.812;2024-01-11T04:43:57;-4.10;99.90
33837;DHT22;20140;49.356;8.812;2024-01-11T04:46:22;-4.20;99.90
33837;DHT22;20140;49.356;8.812;2024-01-11T04:48:48;-4.20;99.90
33837;DHT22;20140;49.356;8.812;2024-01-11T04:51:14;-4.20;99.90
33837;DHT22;20140;49.356;8.812;2024-01-11T04:53:40;-4.20;99.90
33837;DHT22;20140;49.356;8.812;2024-01-11T04:56:06;-4.20;99.90
33837;DHT22;20140;49.356;8.812;2024-01-11T04:58:32;-4.20;99.90
33837;DHT22;20140;49.356;8.812;2024-01-11T05:00:58;-4.20;99.90
33837;DHT22;20140;49.356;8.812;2024-01-11T05:03:23;-4.30;99.90
33837;DHT22;20140;49.356;8.812;2024-01-11T05:05:49;-4.20;99.90
33837;DHT22;20140;49.356;8.812;2024-01-11T05:08:15;-4.20;99.90
33837;DHT22;20140;49.356;8.812;2024-01-11T05:10:41;-4.20;99.90
33837;DHT22;20140;49.356;8.812;2024-01-11T05:13:06;-4.20;99.90
33837;DHT22;20140;49.356;8.812;2024-01-11T05:15:33;-4.20;99.90
33837;DHT22;20140;49.356;8.812;2024-01-11T05:17:59;-4.30;99.90
33837;DHT22;20140;49.356;8.812;2024-01-11T05:20:24;-4.30;99.90
33837;DHT22;20140;49.356;8.812;2024-01-11T05:22:51;-4.30;99.90
33837;DHT22;20140;49.356;8.812;2024-01-11T05:25:16;-4.30;99.90
33837;DHT22;20140;49.356;8.812;2024-01-11T05:27:42;-4.40;99.90
33837;DHT22;20140;49.356;8.812;2024-01-11T05:30:07;-4.40;99.90
33837;DHT22;20140;49.356;8.812;2024-01-11T05:32:34;-4.30;99.90
33837;DHT22;20140;49.356;8.812;2024-01-11T05:35:01;-4.40;99.90
33837;DHT22;20140;49.356;8.812;2024-01-11T05:37:26;-4.40;99.90
33837;DHT22;20140;49.356;8.812;2024-01-11T05:39:53;-4.40;99.90
33837;DHT22;20140;49.356;8.812;2024-01-11T05:42:19;-4.40;99.90
33837;DHT22;20140;49.356;8.812;2024-01-11T05:44:46;-4.40;99.90
33837;DHT22;20140;49.356;8.812;2024-01-11T05:47:11;-4.50;99.90
33837;DHT22;20140;49.356;8.812;2024-01-11T05:49:38;-4.50;99.90
33837;DHT22;20140;49.356;8.812;2024-01-11T05:52:04;-4.50;99.90
33837;DHT22;20140;49.356;8.812;2024-01-11T05:54:29;-4.50;99.90
33837;DHT22;20140;49.356;8.812;2024-01-11T05:56:55;-4.50;99.90
33837;DHT22;20140;49.356;8.812;2024-01-11T05:59:22;-4.50;99.90
33837;DHT22;20140;49.356;8.812;2024-01-11T06:01:48;-4.70;99.90
33837;DHT22;20140;49.356;8.812;2024-01-11T06:04:14;-4.70;99.90
33837;DHT22;20140;49.356;8.812;2024-01-11T06:06:39;-4.70;99.90
33837;DHT22;20140;49.356;8.812;2024-01-11T06:09:05;-4.70;99.90
33837;DHT22;20140;49.356;8.812;2024-01-11T06:11:31;-4.70;99.90
33837;DHT22;20140;49.356;8.812;2024-01-11T06:13:58;-4.80;99.90
33837;DHT22;20140;49.356;8.812;2024-01-11T06:16:24;-4.80;99.90
33837;DHT22;20140;49.356;8.812;2024-01-11T06:18:50;-4.80;99.90
33837;DHT22;20140;49.356;8.812;2024-01-11T06:21:15;-4.80;99.90
33837;DHT22;20140;49.356;8.812;2024-01-11T06:23:45;-4.80;99.90
33837;DHT22;20140;49.356;8.812;2024-01-11T06:26:10;-4.80;99.90
33837;DHT22;20140;49.356;8.812;2024-01-11T06:28:36;-4.80;99.90
33837;DHT22;20140;49.356;8.812;2024-01-11T06:31:02;-4.90;99.90
33837;DHT22;20140;49.356;8.812;2024-01-11T06:33:28;-4.90;99.90
33837;DHT22;20140;49.356;8.812;2024-01-11T06:35:55;-4.90;99.90
33837;DHT22;20140;49.356;8.812;2024-01-11T06:38:22;-5.00;99.90
33837;DHT22;20140;49.356;8.812;2024-01-11T06:40:49;-4.90;99.90
33837;DHT22;20140;49.356;8.812;2024-01-11T06:43:14;-4.90;99.90
33837;DHT22;20140;49.356;8.812;2024-01-11T06:45:43;-4.90;99.90
33837;DHT22;20140;49.356;8.812;2024-01-11T06:48:11;-4.90;99.90
33837;DHT22;20140;49.356;8.812;2024-01-11T06:50:36;-4.90;99.90
33837;DHT22;20140;49.356;8.812;2024-01-11T06:53:02;-4.90;99.90
33837;DHT22;20140;49.356;8.812;2024-01-11T06:55:28;-5.00;99.90
33837;DHT22;20140;49.356;8.812;2024-01-11T06:57:53;-5.00;99.90
33837;DHT22;20140;49.356;8.812;2024-01-11T07:00:20;-5.00;99.90
33837;DHT22;20140;49.356;8.812;2024-01-11T07:02:46;-5.00;99.90
33837;DHT22;20140;49.356;8.812;2024-01-11T07:05:12;-5.00;99.90
33837;DHT22;20140;49.356;8.812;2024-01-11T07:07:38;-5.10;99.90
33837;DHT22;20140;49.356;8.812;2024-01-11T07:10:03;-5.10;99.90
33837;DHT22;20140;49.356;8.812;2024-01-11T07:12:31;-5.20;99.90
33837;DHT22;20140;49.356;8.812;2024-01-11T07:14:57;-5.20;99.90
33837;DHT22;20140;49.356;8.812;2024-01-11T07:17:24;-5.10;99.90
33837;DHT22;20140;49.356;8.812;2024-01-11T07:19:50;-5.30;99.90
33837;DHT22;20140;49.356;8.812;2024-01-11T07:22:15;-5.30;99.90
33837;DHT22;20140;49.356;8.812;2024-01-11T07:24:41;-5.30;99.90
33837;DHT22;20140;49.356;8.812;2024-01-11T07:27:07;-5.40;99.90
33837;DHT22;20140;49.356;8.812;2024-01-11T07:29:33;-5.40;99.90
33837;DHT22;20140;49.356;8.812;2024-01-11T07:31:59;-5.40;99.90
33837;DHT22;20140;49.356;8.812;2024-01-11T07:34:24;-5.40;99.90
33837;DHT22;20140;49.356;8.812;2024-01-11T07:36:50;-5.40;99.90
33837;DHT22;20140;49.356;8.812;2024-01-11T07:39:16;-5.20;99.90
33837;DHT22;20140;49.356;8.812;2024-01-11T07:41:41;-5.20;99.90
33837;DHT22;20140;49.356;8.812;2024-01-11T07:44:07;-5.10;99.90
33837;DHT22;20140;49.356;8.812;2024-01-11T07:46:32;-5.00;99.90
33837;DHT22;20140;49.356;8.812;2024-01-11T07:48:59;-5.00;99.90
33837;DHT22;20140;49.356;8.812;2024-01-11T07:51:24;-5.00;99.90
33837;DHT22;20140;49.356;8.812;2024-01-11T07:53:52;-4.90;99.90
33837;DHT22;20140;49.356;8.812;2024-01-11T07:56:17;-4.90;99.90
33837;DHT22;20140;49.356;8.812;2024-01-11T07:58:43;-4.90;99.90
33837;DHT22;20140;49.356;8.812;2024-01-11T08:01:09;-4.80;99.90
33837;DHT22;20140;49.356;8.812;2024-01-11T08:03:34;-4.80;99.90
33837;DHT22;20140;49.356;8.812;2024-01-11T08:06:00;-4.80;99.90
33837;DHT22;20140;49.356;8.812;2024-01-11T08:08:26;-4.70;99.90
33837;DHT22;20140;49.356;8.812;2024-01-11T08:10:51;-4.90;99.90
33837;DHT22;20140;49.356;8.812;2024-01-11T08:13:17;-5.00;99.90
33837;DHT22;20140;49.356;8.812;2024-01-11T08:15:44;-5.00;99.90
33837;DHT22;20140;49.356;8.812;2024-01-11T08:18:10;-4.90;99.90
33837;DHT22;20140;49.356;8.812;2024-01-11T08:20:35;-4.90;99.90
33837;DHT22;20140;49.356;8.812;2024-01-11T08:23:02;-4.80;99.90
33837;DHT22;20140;49.356;8.812;2024-01-11T08:25:28;-4.80;99.90
33837;DHT22;20140;49.356;8.812;2024-01-11T08:27:54;-4.70;99.90
33837;DHT22;20140;49.356;8.812;2024-01-11T08:30:20;-4.70;99.90
33837;DHT22;20140;49.356;8.812;2024-01-11T08:35:49;-4.50;99.90
33837;DHT22;20140;49.356;8.812;2024-01-11T08:38:16;-4.50;99.90
33837;DHT22;20140;49.356;8.812;2024-01-11T08:40:41;-4.50;99.90
33837;DHT22;20140;49.356;8.812;2024-01-11T08:43:09;-4.50;99.90
33837;DHT22;20140;49.356;8.812;2024-01-11T08:45:36;-4.50;99.90
33837;DHT22;20140;49.356;8.812;2024-01-11T08:48:01;-4.50;99.90
33837;DHT22;20140;49.356;8.812;2024-01-11T08:50:27;-4.40;99.90
33837;DHT22;20140;49.356;8.812;2024-01-11T08:52:52;-4.40;99.90
33837;DHT22;20140;49.356;8.812;2024-01-11T08:55:20;-4.30;99.90
33837;DHT22;20140;49.356;8.812;2024-01-11T08:57:46;-4.30;99.90
33837;DHT22;20140;49.356;8.812;2024-01-11T09:00:11;-4.30;99.90
33837;DHT22;20140;49.356;8.812;2024-01-11T09:02:37;-4.20;99.90
33837;DHT22;20140;49.356;8.812;2024-01-11T09:05:03;-4.10;99.90
33837;DHT22;20140;49.356;8.812;2024-01-11T09:07:32;-4.00;99.90
33837;DHT22;20140;49.356;8.812;2024-01-11T09:13:03;-3.90;99.90
33837;DHT22;20140;49.356;8.812;2024-01-11T09:15:31;-3.90;99.90
33837;DHT22;20140;49.356;8.812;2024-01-11T09:17:58;-3.80;99.90
33837;DHT22;20140;49.356;8.812;2024-01-11T09:20:25;-3.70;99.90
33837;DHT22;20140;49.356;8.812;2024-01-11T09:22:51;-3.50;99.90
33837;DHT22;20140;49.356;8.812;2024-01-11T09:25:16;-3.40;99.90
33837;DHT22;20140;49.356;8.812;2024-01-11T09:27:43;-3.30;99.90
33837;DHT22;20140;49.356;8.812;2024-01-11T09:30:09;-3.20;99.90
33837;DHT22;20140;49.356;8.812;2024-01-11T09:32:34;-3.10;99.90
33837;DHT22;20140;49.356;8.812;2024-01-11T09:35:01;-3.00;99.90
33837;DHT22;20140;49.356;8.812;2024-01-11T09:37:28;-2.90;99.90
33837;DHT22;20140;49.356;8.812;2024-01-11T09:39:53;-2.80;99.90
33837;DHT22;20140;49.356;8.812;2024-01-11T09:42:18;-2.70;99.90
33837;DHT22;20140;49.356;8.812;2024-01-11T09:44:44;-2.40;99.90
33837;DHT22;20140;49.356;8.812;2024-01-11T09:47:10;-2.30;99.90
33837;DHT22;20140;49.356;8.812;2024-01-11T09:49:36;-2.30;99.90
33837;DHT22;20140;49.356;8.812;2024-01-11T09:55:06;-2.30;99.90
33837;DHT22;20140;49.356;8.812;2024-01-11T09:57:32;-2.10;99.90
33837;DHT22;20140;49.356;8.812;2024-01-11T09:59:59;-2.10;99.90
33837;DHT22;20140;49.356;8.812;2024-01-11T10:02:28;-2.10;99.90
33837;DHT22;20140;49.356;8.812;2024-01-11T10:04:55;-2.10;99.90
33837;DHT22;20140;49.356;8.812;2024-01-11T10:07:22;-2.10;99.90
33837;DHT22;20140;49.356;8.812;2024-01-11T10:09:48;-2.10;99.90
33837;DHT22;20140;49.356;8.812;2024-01-11T10:12:13;-2.00;99.90
33837;DHT22;20140;49.356;8.812;2024-01-11T10:14:39;-1.80;99.90
33837;DHT22;20140;49.356;8.812;2024-01-11T10:17:04;-1.50;99.90
33837;DHT22;20140;49.356;8.812;2024-01-11T10:19:30;-1.50;99.90
33837;DHT22;20140;49.356;8.812;2024-01-11T10:21:56;-1.50;99.90
33837;DHT22;20140;49.356;8.812;2024-01-11T10:24:22;-1.60;99.90
33837;DHT22;20140;49.356;8.812;2024-01-11T10:26:51;-1.70;99.90
33837;DHT22;20140;49.356;8.812;2024-01-11T10:29:18;-1.70;99.90
33837;DHT22;20140;49.356;8.812;2024-01-11T10:31:45;-1.60;99.90
33837;DHT22;20140;49.356;8.812;2024-01-11T10:34:10;-1.50;99.90
33837;DHT22;20140;49.356;8.812;2024-01-11T10:36:36;-1.40;99.90
33837;DHT22;20140;49.356;8.812;2024-01-11T10:39:02;-1.20;99.90
33837;DHT22;20140;49.356;8.812;2024-01-11T10:41:32;-1.10;99.90
33837;DHT22;20140;49.356;8.812;2024-01-11T10:44:00;-1.10;99.90
33837;DHT22;20140;49.356;8.812;2024-01-11T10:46:26;-0.90;99.90
33837;DHT22;20140;49.356;8.812;2024-01-11T10:48:54;-0.70;99.90
33837;DHT22;20140;49.356;8.812;2024-01-11T10:51:21;-0.50;99.90
33837;DHT22;20140;49.356;8.812;2024-01-11T10:53:47;-0.50;99.90
33837;DHT22;20140;49.356;8.812;2024-01-11T10:56:17;-0.30;99.90
33837;DHT22;20140;49.356;8.812;2024-01-11T10:58:43;-0.20;99.90
33837;DHT22;20140;49.356;8.812;2024-01-11T11:01:12;-0.10;99.90
33837;DHT22;20140;49.356;8.812;2024-01-11T11:03:38;-0.30;99.90
33837;DHT22;20140;49.356;8.812;2024-01-11T11:06:04;-0.20;99.90
33837;DHT22;20140;49.356;8.812;2024-01-11T11:08:31;-0.20;99.90
33837;DHT22;20140;49.356;8.812;2024-01-11T11:10:57;-0.10;99.90
33837;DHT22;20140;49.356;8.812;2024-01-11T11:13:23;-0.10;99.90
33837;DHT22;20140;49.356;8.812;2024-01-11T11:15:48;0.00;99.90
33837;DHT22;20140;49.356;8.812;2024-01-11T11:18:14;0.00;99.90
33837;DHT22;20140;49.356;8.812;2024-01-11T11:23:43;0.40;99.90
33837;DHT22;20140;49.356;8.812;2024-01-11T11:26:14;0.30;99.90
33837;DHT22;20140;49.356;8.812;2024-01-11T11:28:39;0.40;99.90
33837;DHT22;20140;49.356;8.812;2024-01-11T11:31:05;0.60;99.90
33837;DHT22;20140;49.356;8.812;2024-01-11T11:33:40;0.50;99.90
33837;DHT22;20140;49.356;8.812;2024-01-11T11:36:12;0.50;99.90
33837;DHT22;20140;49.356;8.812;2024-01-11T11:38:37;0.50;99.90
33837;DHT22;20140;49.356;8.812;2024-01-11T11:41:04;0.60;99.90
33837;DHT22;20140;49.356;8.812;2024-01-11T11:43:32;0.60;99.90
33837;DHT22;20140;49.356;8.812;2024-01-11T11:45:58;0.80;99.90
33837;DHT22;20140;49.356;8.812;2024-01-11T11:54:04;1.20;99.90
33837;DHT22;20140;49.356;8.812;2024-01-11T11:56:30;1.20;99.90
33837;DHT22;20140;49.356;8.812;2024-01-11T11:58:56;1.50;99.90
33837;DHT22;20140;49.356;8.812;2024-01-11T12:01:21;1.50;99.90
33837;DHT22;20140;49.356;8.812;2024-01-11T12:03:47;1.50;99.90
33837;DHT22;20140;49.356;8.812;2024-01-11T12:06:19;1.60;99.90
33837;DHT22;20140;49.356;8.812;2024-01-11T12:08:46;1.90;99.90
33837;DHT22;20140;49.356;8.812;2024-01-11T12:11:13;1.90;99.90
33837;DHT22;20140;49.356;8.812;2024-01-11T12:13:39;1.80;99.90
33837;DHT22;20140;49.356;8.812;2024-01-11T12:16:05;1.80;99.90
33837;DHT22;20140;49.356;8.812;2024-01-11T12:18:30;2.00;99.90
33837;DHT22;20140;49.356;8.812;2024-01-11T12:20:56;2.10;99.90
33837;DHT22;20140;49.356;8.812;2024-01-11T12:23:21;2.20;99.90
33837;DHT22;20140;49.356;8.812;2024-01-11T12:25:47;2.20;99.90
33837;DHT22;20140;49.356;8.812;2024-01-11T12:28:13;2.30;99.90
33837;DHT22;20140;49.356;8.812;2024-01-11T12:30:38;2.40;99.90
33837;DHT22;20140;49.356;8.812;2024-01-11T12:33:04;2.30;99.90
33837;DHT22;20140;49.356;8.812;2024-01-11T12:35:30;2.40;99.90
33837;DHT22;20140;49.356;8.812;2024-01-11T12:37:59;2.70;99.90
33837;DHT22;20140;49.356;8.812;2024-01-11T12:40:28;2.90;99.90
33837;DHT22;20140;49.356;8.812;2024-01-11T12:42:56;3.10;99.90
33837;DHT22;20140;49.356;8.812;2024-01-11T12:45:23;3.80;99.90
33837;DHT22;20140;49.356;8.812;2024-01-11T12:47:51;4.60;99.90
33837;DHT22;20140;49.356;8.812;2024-01-11T12:50:16;5.40;99.90
33837;DHT22;20140;49.356;8.812;2024-01-11T12:52:42;5.70;99.90
33837;DHT22;20140;49.356;8.812;2024-01-11T12:55:08;6.10;99.90
33837;DHT22;20140;49.356;8.812;2024-01-11T12:57:43;5.60;99.90
33837;DHT22;20140;49.356;8.812;2024-01-11T13:00:12;5.60;99.90
33837;DHT22;20140;49.356;8.812;2024-01-11T13:02:38;6.50;99.90
33837;DHT22;20140;49.356;8.812;2024-01-11T13:05:04;7.10;99.70
33837;DHT22;20140;49.356;8.812;2024-01-11T13:07:30;7.10;99.40
33837;DHT22;20140;49.356;8.812;2024-01-11T13:09:55;7.50;97.80
33837;DHT22;20140;49.356;8.812;2024-01-11T13:12:21;7.40;97.50
33837;DHT22;20140;49.356;8.812;2024-01-11T13:14:47;7.00;98.40
33837;DHT22;20140;49.356;8.812;2024-01-11T13:17:12;7.00;98.70
33837;DHT22;20140;49.356;8.812;2024-01-11T13:19:38;7.10;98.90
33837;DHT22;20140;49.356;8.812;2024-01-11T13:22:04;7.00;98.40
33837;DHT22;20140;49.356;8.812;2024-01-11T13:24:30;6.30;99.80
33837;DHT22;20140;49.356;8.812;2024-01-11T13:26:55;7.30;98.90
33837;DHT22;20140;49.356;8.812;2024-01-11T13:29:20;7.40;96.60
33837;DHT22;20140;49.356;8.812;2024-01-11T13:31:46;7.10;97.40
33837;DHT22;20140;49.356;8.812;2024-01-11T13:34:11;6.70;98.70
33837;DHT22;20140;49.356;8.812;2024-01-11T13:36:37;6.20;98.70
33837;DHT22;20140;49.356;8.812;2024-01-11T13:39:02;6.20;99.90
33837;DHT22;20140;49.356;8.812;2024-01-11T13:41:28;6.80;98.70
33837;DHT22;20140;49.356;8.812;2024-01-11T13:43:53;7.50;97.60
33837;DHT22;20140;49.356;8.812;2024-01-11T13:46:19;7.40;96.50
33837;DHT22;20140;49.356;8.812;2024-01-11T13:48:45;6.90;98.00
33837;DHT22;20140;49.356;8.812;2024-01-11T13:51:11;7.20;97.50
33837;DHT22;20140;49.356;8.812;2024-01-11T13:53:38;8.10;95.70
33837;DHT22;20140;49.356;8.812;2024-01-11T13:56:03;8.30;96.00
33837;DHT22;20140;49.356;8.812;2024-01-11T13:58:29;8.70;94.70
33837;DHT22;20140;49.356;8.812;2024-01-11T14:00:55;9.40;92.40
33837;DHT22;20140;49.356;8.812;2024-01-11T14:03:20;9.60;90.90
33837;DHT22;20140;49.356;8.812;2024-01-11T14:05:46;9.60;90.40
33837;DHT22;20140;49.356;8.812;2024-01-11T14:08:12;9.40;90.60
33837;DHT22;20140;49.356;8.812;2024-01-11T14:10:38;9.40;90.20
33837;DHT22;20140;49.356;8.812;2024-01-11T14:13:03;8.80;90.60
33837;DHT22;20140;49.356;8.812;2024-01-11T14:15:29;8.10;92.70
33837;DHT22;20140;49.356;8.812;2024-01-11T14:17:54;7.30;95.20
33837;DHT22;20140;49.356;8.812;2024-01-11T14:20:20;7.20;95.80
33837;DHT22;20140;49.356;8.812;2024-01-11T14:22:46;6.90;96.70
33837;DHT22;20140;49.356;8.812;2024-01-11T14:25:18;6.50;98.00
33837;DHT22;20140;49.356;8.812;2024-01-11T14:27:43;6.60;98.60
33837;DHT22;20140;49.356;8.812;2024-01-11T14:30:10;6.80;98.30
33837;DHT22;20140;49.356;8.812;2024-01-11T14:32:36;6.70;98.40
33837;DHT22;20140;49.356;8.812;2024-01-11T14:35:01;6.90;98.00
33837;DHT22;20140;49.356;8.812;2024-01-11T14:37:30;7.00;98.20
33837;DHT22;20140;49.356;8.812;2024-01-11T14:39:55;6.90;96.80
33837;DHT22;20140;49.356;8.812;2024-01-11T14:42:21;6.80;97.30
33837;DHT22;20140;49.356;8.812;2024-01-11T14:44:46;6.70;98.10
33837;DHT22;20140;49.356;8.812;2024-01-11T14:47:11;6.80;97.70
33837;DHT22;20140;49.356;8.812;2024-01-11T14:49:37;7.10;97.70
33837;DHT22;20140;49.356;8.812;2024-01-11T14:52:05;7.20;96.70
33837;DHT22;20140;49.356;8.812;2024-01-11T14:54:31;7.10;97.50
33837;DHT22;20140;49.356;8.812;2024-01-11T14:56:56;7.10;98.00
33837;DHT22;20140;49.356;8.812;2024-01-11T14:59:22;7.00;98.50
33837;DHT22;20140;49.356;8.812;2024-01-11T15:01:48;7.10;98.00
33837;DHT22;20140;49.356;8.812;2024-01-11T15:04:13;7.20;97.80
33837;DHT22;20140;49.356;8.812;2024-01-11T15:06:38;6.60;98.60
33837;DHT22;20140;49.356;8.812;2024-01-11T15:09:04;5.90;99.90
33837;DHT22;20140;49.356;8.812;2024-01-11T15:11:30;5.40;99.90
33837;DHT22;20140;49.356;8.812;2024-01-11T15:14:01;5.20;99.90
33837;DHT22;20140;49.356;8.812;2024-01-11T15:16:28;5.00;99.90
33837;DHT22;20140;49.356;8.812;2024-01-11T15:18:53;5.10;99.90
33837;DHT22;20140;49.356;8.812;2024-01-11T15:21:19;5.00;99.90
33837;DHT22;20140;49.356;8.812;2024-01-11T15:23:44;4.80;99.90
33837;DHT22;20140;49.356;8.812;2024-01-11T15:26:09;4.60;99.90
33837;DHT22;20140;49.356;8.812;2024-01-11T15:28:35;4.30;99.90
33837;DHT22;20140;49.356;8.812;2024-01-11T15:31:00;4.00;99.90
33837;DHT22;20140;49.356;8.812;2024-01-11T15:33:26;3.20;99.90
33837;DHT22;20140;49.356;8.812;2024-01-11T15:35:51;3.00;99.90
33837;DHT22;20140;49.356;8.812;2024-01-11T15:38:17;2.80;99.90
33837;DHT22;20140;49.356;8.812;2024-01-11T15:40:42;2.50;99.90
33837;DHT22;20140;49.356;8.812;2024-01-11T15:43:08;2.50;99.90
33837;DHT22;20140;49.356;8.812;2024-01-11T15:45:33;2.50;99.90